• Join FlightAware (Why Join?)
  • Login
  • US Flag 
02:33AM EDT


 

Airport Tracker/Info


-or-


 

Live Flight TrackerFlight Track Log ✈ CHQ6069 ✈ 17-May-2013 ✈ KCHS - KJFK

Flight Track Log - Related Links

Times and Time Zones

All times are in EDT time to prevent confusion due to time zone crossing. See the CHQ6069 flight status page for this flight to view local times or setup timezone preferences in your user account.

Time Position Orientation Groundspeed Altitude Reporting Facility
EDT Latitude Longitude Course Direction KTS MPH feet Rate Location/Type
11:37AM 32.8722 -79.9889 28° Northeast 223 257 3,400  Level Jacksonville Center
11:38AM 32.8997 -79.9139 66° East 262 302 5,300 2,040 Climbing Jacksonville Center
11:39AM 33.0553 -79.6061 59° Northeast  Level FlightAware Approximate
11:39AM 32.9436 -79.8356 56° Northeast 280 322 7,500  Level Jacksonville Center
11:40AM 33.1124 -79.5072 54° Northeast  Level FlightAware Approximate
11:40AM 32.9897 -79.7572 55° Northeast 291 335 9,800  Level Jacksonville Center
11:41AM 33.1714 -79.4096 51° Northeast  Level FlightAware Approximate
11:41AM 33.0378 -79.6714 56° Northeast 320 368 10,000  Level Jacksonville Center
11:42AM 33.2484 -79.3359 28° Northeast  Level FlightAware Approximate
11:42AM 33.0897 -79.5803 56° Northeast 341 392 10,000  Level Jacksonville Center
11:43AM 33.1394 -79.4892 57° Northeast 334 384 11,600 1,800 Climbing Jacksonville Center
11:44AM 33.1892 -79.3953 58° Northeast 334 384 13,600 1,980 Climbing Jacksonville Center
11:45AM 33.2625 -79.3331 35° Northeast 328 377 15,600 1,920 Climbing Jacksonville Center
11:46AM 33.3425 -79.2825 28° Northeast 321 369 17,500 1,560 Climbing Jacksonville Center
11:47AM 33.4244 -79.2319 27° Northeast 321 369 18,800 1,440 Climbing Jacksonville Center
11:48AM 33.5061 -79.1761 30° Northeast 326 375 20,400 1,560 Climbing Jacksonville Center
11:49AM 33.5903 -79.1228 28° Northeast 332 382 22,000 1,500 Climbing Jacksonville Center
11:50AM 33.6822 -79.0639 28° Northeast 339 390 23,500 1,440 Climbing Jacksonville Center
11:51AM 33.7681 -79.0028 31° Northeast 344 396 25,000 1,500 Climbing Jacksonville Center
11:52AM 33.8561 -78.9489 27° Northeast 344 396 26,500 1,500 Climbing Jacksonville Center
11:53AM 33.9419 -78.8925 29° Northeast 344 396 28,000 1,500 Climbing Jacksonville Center
11:54AM 34.0258 -78.8383 28° Northeast 344 396 29,500 1,320 Climbing Jacksonville Center
11:56AM 34.2081 -78.7183 29° Northeast 350 403 32,300 1,080 Climbing Washington Center
11:57AM 34.2931 -78.6611 29° Northeast 350 403 33,000 300 Climbing Washington Center
11:58AM 34.3786 -78.5789 38° Northeast 365 420 33,000  Level Washington Center
11:59AM 34.4642 -78.4939 39° Northeast 385 443 33,000  Level Washington Center
12:00PM 34.5456 -78.4058 42° Northeast 406 467 33,000  Level Washington Center
12:01PM 34.6414 -78.3183 37° Northeast 406 467 33,000  Level Washington Center
12:02PM 34.7269 -78.2278 41° Northeast 406 467 33,000  Level Washington Center
12:03PM 34.7953 -78.1567 41° Northeast 406 467 33,000  Level Washington Center
12:04PM 34.8892 -78.0583 41° Northeast 406 467 33,000  Level Washington Center
12:05PM 34.9744 -77.9669 41° Northeast 406 467 33,000  Level Washington Center
12:06PM 35.0597 -77.8808 40° Northeast 406 467 33,000  Level Washington Center
12:07PM 35.1428 -77.7917 41° Northeast 401 461 33,000  Level Washington Center
12:08PM 35.2297 -77.7025 40° Northeast 401 461 33,000  Level Washington Center
12:09PM 35.3147 -77.6156 40° Northeast 401 461 33,000  Level Washington Center
12:10PM 35.4017 -77.5336 38° Northeast 396 456 33,000  Level Washington Center
12:11PM 35.4906 -77.4542 36° Northeast 390 449 33,000  Level Washington Center
12:12PM 35.5900 -77.3697 35° Northeast 390 449 33,000  Level Washington Center
12:13PM 35.6786 -77.2925 35° Northeast 395 455 33,000  Level Washington Center
12:14PM 35.7675 -77.2125 36° Northeast 390 449 33,000  Level Washington Center
12:15PM 35.8561 -77.1347 35° Northeast 390 449 33,000  Level Washington Center
12:16PM 35.9281 -77.0644 38° Northeast 373 429 33,000  Level Washington Center
12:17PM 36.0206 -76.9892 33° Northeast 378 435 33,000  Level Washington Center
12:18PM 36.1069 -76.9108 36° Northeast 383 441 33,000  Level Washington Center
12:19PM 36.1936 -76.8300 37° Northeast 390 449 33,000  Level Washington Center
12:20PM 36.2819 -76.7567 34° Northeast 390 449 33,000  Level Washington Center
12:21PM 36.3703 -76.6753 37° Northeast 390 449 33,000  Level Washington Center
12:22PM 36.4586 -76.5967 36° Northeast 390 449 33,000  Level Washington Center
12:23PM 36.5447 -76.5175 36° Northeast 390 449 33,000  Level Washington Center
12:24PM 36.6328 -76.4383 36° Northeast 390 449 33,000  Level Washington Center
12:25PM 36.7211 -76.3589 36° Northeast 390 449 33,000  Level Washington Center
12:26PM 36.8092 -76.2819 35° Northeast 390 449 33,000  Level Washington Center
12:27PM 36.8992 -76.2075 33° Northeast 390 449 33,000  Level Washington Center
12:28PM 37.0100 -76.1458 24° Northeast 385 443 33,000  Level Washington Center
12:29PM 37.1064 -76.0919 24° Northeast 379 436 33,000  Level Washington Center
12:30PM 37.2086 -76.0378 23° Northeast 379 436 33,000  Level Washington Center
12:31PM 37.3092 -75.9836 23° Northeast 384 442 33,000  Level Washington Center
12:32PM 37.4094 -75.9292 23° Northeast 384 442 33,000  Level Washington Center
12:33PM 37.5097 -75.8772 22° Northeast 384 442 33,000  Level Washington Center
12:34PM 37.6036 -75.8094 30° Northeast 384 442 33,000  Level Washington Center
12:35PM 37.6997 -75.7389 30° Northeast 384 442 33,000  Level Washington Center
12:36PM 37.7956 -75.6681 30° Northeast 394 453 33,000  Level Washington Center
12:37PM 37.8917 -75.5969 30° Northeast 399 459 33,000  Level Washington Center
12:38PM 37.9875 -75.5206 32° Northeast 399 459 33,000  Level Washington Center
12:39PM 38.0833 -75.4519 29° Northeast 399 459 33,000  Level Washington Center
12:40PM 38.1814 -75.3936 25° Northeast 394 453 33,000  Level Washington Center
12:41PM 38.2814 -75.3325 26° Northeast 389 448 33,000  Level Washington Center
12:42PM 38.3708 -75.2686 29° Northeast 389 448 33,000  Level Washington Center
12:43PM 38.4769 -75.1967 28° Northeast 401 461 33,000  Level Washington Center
12:44PM 38.5831 -75.1350 24° Northeast 411 473 33,000  Level Washington Center
12:45PM 38.6889 -75.0625 28° Northeast 416 479 33,000  Level Washington Center
12:46PM 38.7950 -74.9978 25° Northeast 421 484 33,000 -900 Level Washington Center
12:47PM 38.9031 -74.9275 27° Northeast 426 490 31,200 -1,980 Descending Washington Center
12:48PM 39.0111 -74.8569 27° Northeast 426 490 29,100 -2,100 Descending Washington Center
12:49PM 39.1169 -74.7783 30° Northeast 426 490 27,100 -2,040 Descending Washington Center
12:51PM 39.2972 -74.5858 40° Northeast 463 533 23,500 -1,980 Descending New York Center
12:52PM 39.3944 -74.4808 40° Northeast 463 533 21,600 -1,860 Descending New York Center
12:53PM 39.4831 -74.3833 40° Northeast 442 509 19,800 -1,860 Descending New York Center
12:54PM 39.5736 -74.2828 41° Northeast 394 453 18,000 -1,260 Descending New York Center
12:55PM 39.6511 -74.2006 39° Northeast 370 426 17,400 -1,380 Descending New York Center
12:56PM 39.7328 -74.1100 40° Northeast 370 426 15,300 -2,040 Descending New York Center
12:57PM 39.8061 -74.0297 40° Northeast 370 426 13,400 -2,040 Descending New York Center
12:58PM 39.8958 -73.9500 34° Northeast 360 414 11,200 -1,200 Descending New York Center
12:59PM 39.9722 -73.8994 27° Northeast 322 371 11,000 -360 Descending New York Center
01:00PM 40.0458 -73.8756 14° North 280 322 10,500 -1,260 Descending New York Center
01:01PM 40.1089 -73.8539 15° North 259 298 8,600 -1,920 Descending New York Center
01:02PM 40.1500 -73.8167 35° Northeast 268 308 7,600 -1,800 Descending New York TRACON
01:03PM 40.2000 -73.7667 37° Northeast 259 298 6,000 -1,740 Descending New York TRACON
01:04PM 40.2667 -73.7167 30° Northeast 246 283 4,300 -1,620 Descending New York TRACON
01:05PM 40.3167 -73.6833 27° Northeast 236 272 2,800 -1,200 Descending New York TRACON
01:06PM 40.3833 -73.6333 30° Northeast 244 281 2,000 -360 Descending New York TRACON
01:07PM 40.4333 -73.6000 27° Northeast 239 275 2,100  Climbing New York TRACON
01:08PM 40.5000 -73.6000 360° North 244 281 2,100  Level New York TRACON